Time,TemperatureF,DewpointF,PressureIn,WindDirection,WindDirectionDegrees,WindSpeedMPH,WindSpeedGustMPH,Humidity,HourlyPrecipIn,Conditions,Clouds,dailyrainin,SolarRadiationWatts/m^2,SoftwareType,DateUTC
2013-10-19 00:00:00,43.6,42.3,29.75,WSW,242,0.0,0.0,95,0.00,,,0.00,0,WeatherCatV1.21B27,2013-10-19 04:00:00,
2013-10-19 00:01:00,43.6,42.3,29.75,WSW,242,0.0,0.0,95,0.00,,,0.00,0,WeatherCatV1.21B27,2013-10-19 04:01:00,
2013-10-19 00:02:00,43.6,42.3,29.75,WSW,242,0.0,0.0,95,0.00,,,0.00,0,WeatherCatV1.21B27,2013-10-19 04:02:00,
2013-10-19 00:07:00,43.5,42.2,29.74,WSW,242,0.0,0.0,95,0.00,,,0.00,0,WeatherCatV1.21B27,2013-10-19 04:07:00,
2013-10-19 00:12:00,43.4,42.1,29.74,WSW,242,0.0,0.0,95,0.00,,,0.00,0,WeatherCatV1.21B27,2013-10-19 04:12:00,
2013-10-19 00:17:00,43.3,42.0,29.74,WSW,242,0.0,0.0,95,0.00,,,0.00,0,WeatherCatV1.21B27,2013-10-19 04:17:00,
2013-10-19 00:22:00,43.2,41.9,29.74,WSW,242,0.0,0.0,95,0.00,,,0.00,0,WeatherCatV1.21B27,2013-10-19 04:22:00,
2013-10-19 00:27:00,43.0,41.7,29.74,WSW,242,0.0,0.0,95,0.00,,,0.00,0,WeatherCatV1.21B27,2013-10-19 04:27:00,
2013-10-19 00:32:00,42.9,41.6,29.74,WSW,242,0.0,0.0,95,0.00,,,0.00,0,WeatherCatV1.21B27,2013-10-19 04:32:00,
2013-10-19 00:37:00,42.7,41.4,29.75,WSW,242,0.0,0.0,95,0.00,,,0.00,0,WeatherCatV1.21B27,2013-10-19 04:37:00,
2013-10-19 00:42:00,42.6,41.3,29.75,WSW,242,0.0,0.0,95,0.00,,,0.00,0,WeatherCatV1.21B27,2013-10-19 04:42:00,
2013-10-19 00:47:00,42.5,41.4,29.75,WSW,242,0.0,0.0,96,0.00,,,0.00,0,WeatherCatV1.21B27,2013-10-19 04:47:00,
2013-10-19 00:52:00,42.5,41.4,29.75,WSW,242,0.0,0.0,96,0.00,,,0.00,0,WeatherCatV1.21B27,2013-10-19 04:52:00,
2013-10-19 00:57:00,42.4,41.3,29.75,WSW,242,0.0,0.0,96,0.00,,,0.00,0,WeatherCatV1.21B27,2013-10-19 04:57:00,
2013-10-19 01:02:00,42.2,41.1,29.75,WSW,242,0.0,0.0,96,0.00,,,0.00,0,WeatherCatV1.21B27,2013-10-19 05:02:00,
2013-10-19 01:07:00,42.1,41.0,29.75,WSW,242,0.0,0.0,96,0.00,,,0.00,0,WeatherCatV1.21B27,2013-10-19 05:07:00,
2013-10-19 01:12:00,42.0,40.9,29.75,WSW,242,0.0,0.0,96,0.00,,,0.00,0,WeatherCatV1.21B27,2013-10-19 05:12:00,
2013-10-19 01:17:00,41.8,40.7,29.75,WSW,242,0.0,0.0,96,0.00,,,0.00,0,WeatherCatV1.21B27,2013-10-19 05:17:00,
2013-10-19 01:22:00,41.8,40.7,29.75,WSW,242,0.0,0.0,96,0.00,,,0.00,0,WeatherCatV1.21B27,2013-10-19 05:22:00,
2013-10-19 01:27:00,41.6,40.5,29.75,WSW,242,0.0,0.0,96,0.00,,,0.00,0,WeatherCatV1.21B27,2013-10-19 05:27:00,
2013-10-19 01:32:00,41.5,40.5,29.75,WSW,242,0.0,0.0,96,0.00,,,0.00,0,WeatherCatV1.21B27,2013-10-19 05:32:00,
2013-10-19 01:37:00,41.4,40.3,29.75,WSW,242,0.0,0.0,96,0.00,,,0.00,0,WeatherCatV1.21B27,2013-10-19 05:37:00,
2013-10-19 01:42:00,41.3,40.2,29.75,WSW,242,0.0,0.0,96,0.00,,,0.00,0,WeatherCatV1.21B27,2013-10-19 05:42:00,
2013-10-19 01:47:00,41.2,40.2,29.74,WSW,242,0.0,0.0,96,0.00,,,0.00,0,WeatherCatV1.21B27,2013-10-19 05:47:00,
2013-10-19 01:52:00,41.1,40.0,29.74,WSW,242,0.0,0.0,96,0.00,,,0.00,0,WeatherCatV1.21B27,2013-10-19 05:52:00,
2013-10-19 01:57:00,41.0,40.0,29.74,WSW,242,0.0,0.0,96,0.00,,,0.00,0,WeatherCatV1.21B27,2013-10-19 05:57:00,
2013-10-19 02:02:00,40.8,39.8,29.74,WSW,242,0.0,0.0,96,0.00,,,0.00,0,WeatherCatV1.21B27,2013-10-19 06:02:00,
2013-10-19 02:07:00,40.7,39.7,29.74,WSW,242,0.0,0.0,96,0.00,,,0.00,0,WeatherCatV1.21B27,2013-10-19 06:07:00,
2013-10-19 02:12:00,40.6,39.5,29.75,WSW,242,0.0,0.0,96,0.00,,,0.00,0,WeatherCatV1.21B27,2013-10-19 06:12:00,
2013-10-19 02:17:00,40.5,39.5,29.75,WSW,242,0.0,0.0,96,0.00,,,0.00,0,WeatherCatV1.21B27,2013-10-19 06:17:00,
2013-10-19 02:22:00,40.5,39.5,29.75,WSW,242,0.0,0.0,96,0.00,,,0.00,0,WeatherCatV1.21B27,2013-10-19 06:22:00,
2013-10-19 02:27:00,40.5,39.5,29.74,WSW,242,0.0,0.0,96,0.00,,,0.00,0,WeatherCatV1.21B27,2013-10-19 06:27:00,
2013-10-19 02:32:00,40.5,39.5,29.74,WSW,242,0.0,0.0,96,0.00,,,0.00,0,WeatherCatV1.21B27,2013-10-19 06:32:00,
2013-10-19 02:37:00,40.4,39.3,29.74,WSW,242,0.0,0.0,96,0.00,,,0.00,0,WeatherCatV1.21B27,2013-10-19 06:37:00,
2013-10-19 02:42:00,40.2,39.2,29.74,WSW,242,0.0,0.0,96,0.00,,,0.00,0,WeatherCatV1.21B27,2013-10-19 06:42:00,
2013-10-19 02:47:00,40.1,39.0,29.74,WSW,242,0.0,0.0,96,0.00,,,0.00,0,WeatherCatV1.21B27,2013-10-19 06:47:00,
2013-10-19 02:52:00,40.1,39.0,29.74,WSW,242,0.0,0.0,96,0.00,,,0.00,0,WeatherCatV1.21B27,2013-10-19 06:52:00,
2013-10-19 02:57:00,39.9,38.8,29.74,WSW,242,0.0,0.0,96,0.00,,,0.00,0,WeatherCatV1.21B27,2013-10-19 06:57:00,
2013-10-19 03:02:00,39.8,38.8,29.74,WSW,242,0.0,0.0,96,0.00,,,0.00,0,WeatherCatV1.21B27,2013-10-19 07:02:00,
2013-10-19 03:07:00,39.8,38.8,29.73,WSW,242,0.0,0.0,96,0.00,,,0.00,0,WeatherCatV1.21B27,2013-10-19 07:07:00,
2013-10-19 03:12:00,39.7,38.7,29.73,WSW,242,0.0,0.0,96,0.00,,,0.00,0,WeatherCatV1.21B27,2013-10-19 07:12:00,
2013-10-19 03:17:00,39.7,38.7,29.73,WSW,242,0.0,0.0,96,0.00,,,0.00,0,WeatherCatV1.21B27,2013-10-19 07:17:00,
2013-10-19 03:22:00,39.6,38.5,29.73,WSW,242,0.0,0.0,96,0.00,,,0.00,0,WeatherCatV1.21B27,2013-10-19 07:22:00,
2013-10-19 03:27:00,39.5,38.5,29.73,WSW,242,0.0,0.0,96,0.00,,,0.00,0,WeatherCatV1.21B27,2013-10-19 07:27:00,
2013-10-19 03:32:00,39.4,38.4,29.73,WSW,242,0.0,0.0,96,0.00,,,0.00,0,WeatherCatV1.21B27,2013-10-19 07:32:00,
2013-10-19 03:37:00,39.4,38.4,29.73,WSW,242,0.0,0.0,96,0.00,,,0.00,0,WeatherCatV1.21B27,2013-10-19 07:37:00,
2013-10-19 03:42:00,39.4,38.6,29.73,WSW,242,0.0,0.0,97,0.00,,,0.00,0,WeatherCatV1.21B27,2013-10-19 07:42:00,
2013-10-19 03:47:00,39.3,38.3,29.73,WSW,242,0.0,0.0,96,0.00,,,0.00,0,WeatherCatV1.21B27,2013-10-19 07:47:00,
2013-10-19 03:52:00,39.2,38.2,29.73,WSW,242,0.0,0.0,96,0.00,,,0.00,0,WeatherCatV1.21B27,2013-10-19 07:52:00,
2013-10-19 03:57:00,39.2,38.2,29.73,WSW,242,0.0,0.0,96,0.00,,,0.00,0,WeatherCatV1.21B27,2013-10-19 07:57:00,
2013-10-19 04:02:00,39.1,38.1,29.73,WSW,242,0.0,0.0,96,0.00,,,0.00,0,WeatherCatV1.21B27,2013-10-19 08:02:00,
2013-10-19 04:07:00,39.0,38.0,29.74,WSW,242,0.0,0.0,96,0.00,,,0.00,0,WeatherCatV1.21B27,2013-10-19 08:07:00,
2013-10-19 04:12:00,38.8,37.8,29.74,WSW,242,0.0,0.0,96,0.00,,,0.00,0,WeatherCatV1.21B27,2013-10-19 08:12:00,
2013-10-19 04:17:00,38.7,37.7,29.73,WSW,242,0.0,0.0,96,0.00,,,0.00,0,WeatherCatV1.21B27,2013-10-19 08:17:00,
2013-10-19 04:22:00,38.6,37.6,29.74,WSW,242,0.0,0.0,96,0.00,,,0.00,0,WeatherCatV1.21B27,2013-10-19 08:22:00,
2013-10-19 04:27:00,38.5,37.5,29.74,WSW,242,0.0,0.0,96,0.00,,,0.00,0,WeatherCatV1.21B27,2013-10-19 08:27:00,
2013-10-19 04:32:00,38.4,37.6,29.74,WSW,242,0.0,0.0,97,0.00,,,0.00,0,WeatherCatV1.21B27,2013-10-19 08:32:00,
2013-10-19 04:37:00,38.4,37.6,29.74,WSW,242,0.0,0.0,97,0.00,,,0.00,0,WeatherCatV1.21B27,2013-10-19 08:37:00,
2013-10-19 04:42:00,38.3,37.5,29.74,WSW,242,0.0,0.0,97,0.00,,,0.00,0,WeatherCatV1.21B27,2013-10-19 08:42:00,
2013-10-19 04:47:00,38.3,37.5,29.74,WSW,242,0.0,0.0,97,0.00,,,0.00,0,WeatherCatV1.21B27,2013-10-19 08:47:00,
2013-10-19 04:52:00,38.2,37.4,29.74,WSW,242,0.0,0.0,97,0.00,,,0.00,0,WeatherCatV1.21B27,2013-10-19 08:52:00,
2013-10-19 04:57:00,38.1,37.1,29.74,WSW,242,0.0,0.0,96,0.00,,,0.00,0,WeatherCatV1.21B27,2013-10-19 08:57:00,
2013-10-19 05:02:00,38.0,37.0,29.74,WSW,242,0.0,0.0,96,0.00,,,0.00,0,WeatherCatV1.21B27,2013-10-19 09:02:00,
2013-10-19 05:07:00,38.0,37.2,29.74,WSW,242,0.0,0.0,97,0.00,,,0.00,0,WeatherCatV1.21B27,2013-10-19 09:07:00,
2013-10-19 05:12:00,38.0,37.2,29.74,WSW,242,0.0,0.0,97,0.00,,,0.00,0,WeatherCatV1.21B27,2013-10-19 09:12:00,
2013-10-19 05:17:00,38.0,37.2,29.74,WSW,242,0.0,0.0,97,0.00,,,0.00,0,WeatherCatV1.21B27,2013-10-19 09:17:00,
2013-10-19 05:22:00,38.1,37.3,29.74,WSW,242,0.0,0.0,97,0.00,,,0.00,0,WeatherCatV1.21B27,2013-10-19 09:22:00,
2013-10-19 05:27:00,38.1,37.3,29.74,WSW,242,0.0,0.0,97,0.00,,,0.00,0,WeatherCatV1.21B27,2013-10-19 09:27:00,
2013-10-19 05:32:00,38.1,37.3,29.73,WSW,242,0.0,0.0,97,0.00,,,0.00,0,WeatherCatV1.21B27,2013-10-19 09:32:00,
2013-10-19 05:37:00,38.0,37.2,29.73,WSW,242,0.0,0.0,97,0.00,,,0.00,0,WeatherCatV1.21B27,2013-10-19 09:37:00,
2013-10-19 05:42:00,38.1,37.3,29.73,WSW,242,0.0,0.0,97,0.00,,,0.00,0,WeatherCatV1.21B27,2013-10-19 09:42:00,
2013-10-19 05:47:00,38.1,37.3,29.73,WSW,242,0.0,0.0,97,0.00,,,0.00,0,WeatherCatV1.21B27,2013-10-19 09:47:00,
2013-10-19 05:52:00,38.3,37.5,29.73,WSW,242,0.0,0.0,97,0.00,,,0.00,0,WeatherCatV1.21B27,2013-10-19 09:52:00,
2013-10-19 05:57:00,38.3,37.5,29.72,WSW,242,0.0,0.0,97,0.00,,,0.00,0,WeatherCatV1.21B27,2013-10-19 09:57:00,
2013-10-19 06:02:00,38.3,37.5,29.73,WSW,242,0.0,0.0,97,0.00,,,0.00,0,WeatherCatV1.21B27,2013-10-19 10:02:00,
2013-10-19 06:07:00,38.2,37.4,29.72,WSW,242,0.0,0.0,97,0.00,,,0.00,0,WeatherCatV1.21B27,2013-10-19 10:07:00,
2013-10-19 06:12:00,38.1,37.3,29.72,WSW,242,0.0,0.0,97,0.00,,,0.00,0,WeatherCatV1.21B27,2013-10-19 10:12:00,
2013-10-19 06:17:00,38.0,37.2,29.72,WSW,242,0.0,0.0,97,0.00,,,0.00,0,WeatherCatV1.21B27,2013-10-19 10:17:00,
2013-10-19 06:22:00,38.0,37.2,29.72,WSW,242,0.0,0.0,97,0.00,,,0.00,0,WeatherCatV1.21B27,2013-10-19 10:22:00,
2013-10-19 06:27:00,38.1,37.3,29.72,WSW,242,0.0,0.0,97,0.00,,,0.00,0,WeatherCatV1.21B27,2013-10-19 10:27:00,
2013-10-19 06:32:00,38.0,37.2,29.72,WSW,242,0.0,0.0,97,0.00,,,0.00,0,WeatherCatV1.21B27,2013-10-19 10:32:00,
2013-10-19 06:37:00,38.1,37.3,29.72,WSW,242,0.0,0.0,97,0.00,,,0.00,0,WeatherCatV1.21B27,2013-10-19 10:37:00,
2013-10-19 06:42:00,38.1,37.3,29.72,WSW,242,0.0,0.0,97,0.00,,,0.00,0,WeatherCatV1.21B27,2013-10-19 10:42:00,
2013-10-19 06:47:00,38.0,37.2,29.73,WSW,242,0.0,0.0,97,0.00,,,0.00,0,WeatherCatV1.21B27,2013-10-19 10:47:00,
2013-10-19 06:52:00,38.0,37.2,29.72,WSW,242,0.0,0.0,97,0.00,,,0.00,0,WeatherCatV1.21B27,2013-10-19 10:52:00,
2013-10-19 06:57:00,38.1,37.3,29.72,WSW,242,0.0,0.0,97,0.00,,,0.00,0,WeatherCatV1.21B27,2013-10-19 10:57:00,
2013-10-19 07:02:00,38.2,37.4,29.72,WSW,242,0.0,0.0,97,0.00,,,0.00,0,WeatherCatV1.21B27,2013-10-19 11:02:00,
2013-10-19 07:07:00,38.2,37.4,29.72,WSW,242,0.0,0.0,97,0.00,,,0.00,0,WeatherCatV1.21B27,2013-10-19 11:07:00,
2013-10-19 07:12:00,38.2,37.4,29.72,WSW,242,0.0,0.0,97,0.00,,,0.00,0,WeatherCatV1.21B27,2013-10-19 11:12:00,
2013-10-19 07:17:00,38.1,37.3,29.72,WSW,242,0.0,0.0,97,0.00,,,0.00,0,WeatherCatV1.21B27,2013-10-19 11:17:00,
2013-10-19 07:22:00,38.1,37.3,29.72,WSW,242,0.0,0.0,97,0.00,,,0.00,0,WeatherCatV1.21B27,2013-10-19 11:22:00,
2013-10-19 07:27:00,38.2,37.4,29.72,WSW,242,0.0,0.0,97,0.00,,,0.00,0,WeatherCatV1.21B27,2013-10-19 11:27:00,
2013-10-19 07:32:00,38.2,37.4,29.72,WSW,242,0.0,0.0,97,0.00,,,0.00,0,WeatherCatV1.21B27,2013-10-19 11:32:00,
2013-10-19 07:37:00,38.2,37.4,29.73,WSW,242,0.0,0.0,97,0.00,,,0.00,0,WeatherCatV1.21B27,2013-10-19 11:37:00,
2013-10-19 07:42:00,38.2,37.4,29.72,WSW,242,0.0,0.0,97,0.00,,,0.00,0,WeatherCatV1.21B27,2013-10-19 11:42:00,
2013-10-19 07:47:00,38.1,37.3,29.72,WSW,242,0.0,0.0,97,0.00,,,0.00,0,WeatherCatV1.21B27,2013-10-19 11:47:00,
2013-10-19 07:52:00,38.0,37.2,29.73,WSW,242,0.0,0.0,97,0.00,,,0.00,0,WeatherCatV1.21B27,2013-10-19 11:52:00,
2013-10-19 07:57:00,38.1,37.3,29.72,WSW,242,0.0,0.0,97,0.00,,,0.00,0,WeatherCatV1.21B27,2013-10-19 11:57:00,
2013-10-19 08:02:00,38.1,37.3,29.73,WSW,242,0.0,0.0,97,0.00,,,0.00,5,WeatherCatV1.21B27,2013-10-19 12:02:00,
2013-10-19 08:07:00,38.1,37.3,29.73,WSW,242,0.0,0.0,97,0.00,,,0.00,5,WeatherCatV1.21B27,2013-10-19 12:07:00,
2013-10-19 08:12:00,38.1,37.3,29.73,WSW,242,0.0,0.0,97,0.00,,,0.00,11,WeatherCatV1.21B27,2013-10-19 12:12:00,
2013-10-19 08:17:00,38.2,37.4,29.73,WSW,242,0.0,0.0,97,0.00,,,0.00,11,WeatherCatV1.21B27,2013-10-19 12:17:00,
2013-10-19 08:22:00,38.3,37.5,29.73,WSW,242,0.0,0.0,97,0.00,,,0.00,11,WeatherCatV1.21B27,2013-10-19 12:22:00,
2013-10-19 08:27:00,38.4,37.6,29.73,WSW,242,0.0,0.0,97,0.00,,,0.00,16,WeatherCatV1.21B27,2013-10-19 12:27:00,
2013-10-19 08:32:00,38.6,37.8,29.73,WSW,242,0.0,0.0,97,0.00,,,0.00,18,WeatherCatV1.21B27,2013-10-19 12:32:00,
2013-10-19 08:37:00,38.9,38.1,29.73,WSW,242,0.0,0.0,97,0.00,,,0.00,23,WeatherCatV1.21B27,2013-10-19 12:37:00,
2013-10-19 08:42:00,39.2,38.4,29.74,WSW,242,0.0,0.0,97,0.00,,,0.00,23,WeatherCatV1.21B27,2013-10-19 12:42:00,
2013-10-19 08:47:00,39.5,38.7,29.74,WSW,242,0.0,0.0,97,0.00,,,0.00,19,WeatherCatV1.21B27,2013-10-19 12:47:00,
2013-10-19 08:52:00,39.8,39.0,29.73,WSW,242,0.0,0.0,97,0.00,,,0.00,23,WeatherCatV1.21B27,2013-10-19 12:52:00,
2013-10-19 08:57:00,40.0,39.2,29.73,WSW,242,0.0,0.0,97,0.00,,,0.00,26,WeatherCatV1.21B27,2013-10-19 12:57:00,
2013-10-19 09:02:00,40.4,39.6,29.74,WSW,242,0.0,0.0,97,0.00,,,0.00,23,WeatherCatV1.21B27,2013-10-19 13:02:00,
2013-10-19 09:07:00,40.7,39.9,29.74,WSW,242,0.0,0.0,97,0.00,,,0.00,25,WeatherCatV1.21B27,2013-10-19 13:07:00,
2013-10-19 09:12:00,41.1,40.3,29.74,WSW,242,0.0,0.0,97,0.00,,,0.00,32,WeatherCatV1.21B27,2013-10-19 13:12:00,
2013-10-19 09:17:00,41.4,40.6,29.73,WSW,242,0.0,0.0,97,0.00,,,0.00,35,WeatherCatV1.21B27,2013-10-19 13:17:00,
2013-10-19 09:22:00,41.8,41.0,29.73,WSW,242,0.0,0.0,97,0.00,,,0.00,33,WeatherCatV1.21B27,2013-10-19 13:22:00,
2013-10-19 09:27:00,42.3,41.5,29.73,WSW,242,0.0,0.0,97,0.00,,,0.00,35,WeatherCatV1.21B27,2013-10-19 13:27:00,
2013-10-19 09:32:00,42.8,42.0,29.72,WSW,242,0.0,0.0,97,0.00,,,0.00,33,WeatherCatV1.21B27,2013-10-19 13:32:00,
2013-10-19 09:37:00,43.2,42.4,29.72,WSW,242,0.0,0.0,97,0.00,,,0.00,33,WeatherCatV1.21B27,2013-10-19 13:37:00,
2013-10-19 09:42:00,43.6,42.8,29.72,WSW,242,0.0,0.0,97,0.00,,,0.00,30,WeatherCatV1.21B27,2013-10-19 13:42:00,
2013-10-19 09:47:00,44.0,43.2,29.72,WSW,242,0.0,0.0,97,0.00,,,0.00,35,WeatherCatV1.21B27,2013-10-19 13:47:00,
2013-10-19 09:52:00,44.3,43.5,29.72,WSW,242,0.0,0.0,97,0.00,,,0.00,39,WeatherCatV1.21B27,2013-10-19 13:52:00,
2013-10-19 09:57:00,44.7,43.6,29.72,WSW,242,0.0,0.0,96,0.00,,,0.00,32,WeatherCatV1.21B27,2013-10-19 13:57:00,
2013-10-19 10:02:00,45.1,44.0,29.73,WSW,242,0.0,0.0,96,0.00,,,0.00,37,WeatherCatV1.21B27,2013-10-19 14:02:00,
2013-10-19 10:07:00,45.8,44.7,29.73,WSW,242,0.0,0.0,96,0.00,,,0.00,40,WeatherCatV1.21B27,2013-10-19 14:07:00,
2013-10-19 10:12:00,46.2,45.1,29.73,WSW,242,0.0,0.0,96,0.00,,,0.00,49,WeatherCatV1.21B27,2013-10-19 14:12:00,
2013-10-19 10:17:00,46.8,45.4,29.73,WSW,242,0.0,0.0,95,0.00,,,0.00,46,WeatherCatV1.21B27,2013-10-19 14:17:00,
2013-10-19 10:22:00,47.2,45.6,29.73,WSW,242,0.0,0.0,94,0.00,,,0.00,56,WeatherCatV1.21B27,2013-10-19 14:22:00,
2013-10-19 10:27:00,47.8,46.2,29.73,WSW,242,0.0,0.0,94,0.00,,,0.00,53,WeatherCatV1.21B27,2013-10-19 14:27:00,
2013-10-19 10:32:00,48.4,46.8,29.73,WSW,242,0.0,0.0,94,0.00,,,0.00,53,WeatherCatV1.21B27,2013-10-19 14:32:00,
2013-10-19 10:37:00,48.9,47.0,29.73,WSW,242,0.0,0.0,93,0.00,,,0.00,51,WeatherCatV1.21B27,2013-10-19 14:37:00,
2013-10-19 10:42:00,49.6,47.4,29.73,WSW,242,0.0,0.0,92,0.00,,,0.00,60,WeatherCatV1.21B27,2013-10-19 14:42:00,
2013-10-19 10:47:00,50.2,47.7,29.73,WSW,242,0.0,0.0,91,0.00,,,0.00,56,WeatherCatV1.21B27,2013-10-19 14:47:00,
2013-10-19 10:52:00,50.8,48.0,29.73,WSW,242,0.0,0.0,90,0.00,,,0.00,54,WeatherCatV1.21B27,2013-10-19 14:52:00,
2013-10-19 10:57:00,51.5,48.4,29.73,WSW,242,0.0,0.0,89,0.00,,,0.00,65,WeatherCatV1.21B27,2013-10-19 14:57:00,
2013-10-19 11:02:00,52.2,48.8,29.72,WSW,242,0.0,0.0,88,0.00,,,0.00,65,WeatherCatV1.21B27,2013-10-19 15:02:00,
2013-10-19 11:07:00,52.9,49.4,29.72,WSW,242,0.0,0.0,88,0.00,,,0.00,100,WeatherCatV1.21B27,2013-10-19 15:07:00,
2013-10-19 11:12:00,53.5,49.7,29.72,WSW,242,0.0,0.0,87,0.00,,,0.00,84,WeatherCatV1.21B27,2013-10-19 15:12:00,
2013-10-19 11:17:00,54.2,49.8,29.72,WSW,242,0.0,0.0,85,0.00,,,0.00,79,WeatherCatV1.21B27,2013-10-19 15:17:00,
2013-10-19 11:22:00,54.7,49.3,29.72,WSW,242,0.0,0.0,82,0.00,,,0.00,79,WeatherCatV1.21B27,2013-10-19 15:22:00,
2013-10-19 11:27:00,55.1,49.4,29.72,WSW,242,0.0,0.0,81,0.00,,,0.00,107,WeatherCatV1.21B27,2013-10-19 15:27:00,
2013-10-19 11:32:00,55.4,50.0,29.71,WSW,242,0.0,0.0,82,0.00,,,0.00,123,WeatherCatV1.21B27,2013-10-19 15:32:00,
2013-10-19 11:37:00,56.1,50.0,29.71,WSW,242,0.0,0.0,80,0.00,,,0.00,120,WeatherCatV1.21B27,2013-10-19 15:37:00,
2013-10-19 11:42:00,56.8,50.7,29.70,WSW,242,0.0,0.0,80,0.00,,,0.00,102,WeatherCatV1.21B27,2013-10-19 15:42:00,
2013-10-19 11:47:00,57.2,50.0,29.70,WSW,242,0.0,0.0,77,0.00,,,0.00,84,WeatherCatV1.21B27,2013-10-19 15:47:00,
2013-10-19 11:52:00,57.7,49.8,29.69,WSW,242,0.0,0.0,75,0.00,,,0.00,93,WeatherCatV1.21B27,2013-10-19 15:52:00,
2013-10-19 11:57:00,58.1,49.5,29.69,WSW,242,0.0,1.0,73,0.00,,,0.00,91,WeatherCatV1.21B27,2013-10-19 15:57:00,
2013-10-19 12:02:00,58.4,49.8,29.69,WSW,242,0.0,0.0,73,0.00,,,0.00,97,WeatherCatV1.21B27,2013-10-19 16:02:00,
2013-10-19 12:07:00,58.6,48.8,29.69,WSW,242,0.0,0.0,70,0.00,,,0.00,98,WeatherCatV1.21B27,2013-10-19 16:07:00,
2013-10-19 12:12:00,58.9,49.5,29.68,WSW,242,1.0,1.0,71,0.00,,,0.00,102,WeatherCatV1.21B27,2013-10-19 16:12:00,
2013-10-19 12:17:00,59.1,49.3,29.69,WSW,242,0.0,0.0,70,0.00,,,0.00,100,WeatherCatV1.21B27,2013-10-19 16:17:00,
2013-10-19 12:22:00,59.3,49.5,29.69,WSW,242,0.0,0.0,70,0.00,,,0.00,114,WeatherCatV1.21B27,2013-10-19 16:22:00,
2013-10-19 12:27:00,59.6,49.0,29.68,WSW,242,0.0,0.0,68,0.00,,,0.00,127,WeatherCatV1.21B27,2013-10-19 16:27:00,
2013-10-19 12:32:00,60.3,48.1,29.68,SSW,205,0.0,2.0,64,0.00,,,0.00,120,WeatherCatV1.21B27,2013-10-19 16:32:00,
2013-10-19 12:37:00,60.7,48.0,29.68,SSW,205,0.0,0.0,63,0.00,,,0.00,116,WeatherCatV1.21B27,2013-10-19 16:37:00,
2013-10-19 12:42:00,60.7,47.6,29.68,SSW,205,0.0,0.0,62,0.00,,,0.00,132,WeatherCatV1.21B27,2013-10-19 16:42:00,
2013-10-19 12:47:00,60.6,47.1,29.68,SSW,205,0.0,0.0,61,0.00,,,0.00,109,WeatherCatV1.21B27,2013-10-19 16:47:00,
2013-10-19 12:52:00,60.8,46.4,29.67,SSW,204,0.0,0.0,59,0.00,,,0.00,118,WeatherCatV1.21B27,2013-10-19 16:52:00,
2013-10-19 12:57:00,60.9,46.0,29.67,SSW,212,0.0,1.0,58,0.00,,,0.00,132,WeatherCatV1.21B27,2013-10-19 16:57:00,
2013-10-19 13:02:00,60.9,46.5,29.66,SSW,212,0.0,0.0,59,0.00,,,0.00,127,WeatherCatV1.21B27,2013-10-19 17:02:00,
2013-10-19 13:07:00,61.3,45.5,29.66,SSW,209,0.0,2.0,56,0.00,,,0.00,134,WeatherCatV1.21B27,2013-10-19 17:07:00,
2013-10-19 13:12:00,61.1,46.2,29.65,South,180,1.0,1.0,58,0.00,,,0.00,107,WeatherCatV1.21B27,2013-10-19 17:12:00,
2013-10-19 13:17:00,61.5,46.1,29.65,South,180,0.0,0.0,57,0.00,,,0.00,267,WeatherCatV1.21B27,2013-10-19 17:17:00,
2013-10-19 13:22:00,61.7,45.4,29.65,South,181,0.0,1.0,55,0.00,,,0.00,134,WeatherCatV1.21B27,2013-10-19 17:22:00,
2013-10-19 13:27:00,61.4,45.6,29.66,South,180,0.0,3.0,56,0.00,,,0.00,135,WeatherCatV1.21B27,2013-10-19 17:27:00,
2013-10-19 13:32:00,61.5,46.1,29.65,South,180,0.0,2.0,57,0.00,,,0.00,102,WeatherCatV1.21B27,2013-10-19 17:32:00,
2013-10-19 13:37:00,61.3,45.5,29.65,South,191,0.0,2.0,56,0.00,,,0.00,109,WeatherCatV1.21B27,2013-10-19 17:37:00,
2013-10-19 13:42:00,61.2,45.8,29.66,SSW,196,0.0,0.0,57,0.00,,,0.00,174,WeatherCatV1.21B27,2013-10-19 17:42:00,
2013-10-19 13:47:00,61.5,46.6,29.65,SW,236,0.0,1.0,58,0.00,,,0.00,105,WeatherCatV1.21B27,2013-10-19 17:47:00,
2013-10-19 13:52:00,61.4,46.9,29.66,SSW,203,0.0,2.0,59,0.00,,,0.00,134,WeatherCatV1.21B27,2013-10-19 17:52:00,
2013-10-19 13:57:00,61.6,47.1,29.65,South,175,0.0,2.0,59,0.00,,,0.00,102,WeatherCatV1.21B27,2013-10-19 17:57:00,
2013-10-19 14:02:00,61.4,47.4,29.64,SSW,199,0.0,1.0,60,0.00,,,0.00,69,WeatherCatV1.21B27,2013-10-19 18:02:00,
2013-10-19 14:07:00,61.3,47.3,29.63,South,184,0.0,3.0,60,0.00,,,0.00,70,WeatherCatV1.21B27,2013-10-19 18:07:00,
2013-10-19 14:12:00,61.3,47.7,29.63,South,184,0.0,0.0,61,0.00,,,0.00,83,WeatherCatV1.21B27,2013-10-19 18:12:00,
2013-10-19 14:17:00,61.3,46.8,29.64,WSW,246,0.0,3.0,59,0.00,,,0.00,69,WeatherCatV1.21B27,2013-10-19 18:17:00,
2013-10-19 14:22:00,61.4,47.8,29.63,WSW,246,0.0,0.0,61,0.00,,,0.00,97,WeatherCatV1.21B27,2013-10-19 18:22:00,
2013-10-19 14:27:00,61.6,47.1,29.63,WSW,246,0.0,2.0,59,0.00,,,0.00,134,WeatherCatV1.21B27,2013-10-19 18:27:00,
2013-10-19 14:32:00,62.1,47.6,29.63,SSW,204,0.0,1.0,59,0.00,,,0.00,130,WeatherCatV1.21B27,2013-10-19 18:32:00,
2013-10-19 14:37:00,62.3,46.9,29.63,SSW,208,1.0,2.0,57,0.00,,,0.00,93,WeatherCatV1.21B27,2013-10-19 18:37:00,
2013-10-19 14:42:00,62.4,47.4,29.63,SSW,201,0.0,1.0,58,0.00,,,0.00,260,WeatherCatV1.21B27,2013-10-19 18:42:00,
2013-10-19 14:47:00,62.6,47.2,29.62,SW,232,1.0,4.0,57,0.00,,,0.00,100,WeatherCatV1.21B27,2013-10-19 18:47:00,
2013-10-19 14:52:00,62.3,46.4,29.62,SSW,205,0.0,4.0,56,0.00,,,0.00,83,WeatherCatV1.21B27,2013-10-19 18:52:00,
2013-10-19 14:57:00,62.4,47.4,29.62,SSW,202,0.0,0.0,58,0.00,,,0.00,146,WeatherCatV1.21B27,2013-10-19 18:57:00,
2013-10-19 15:02:00,62.5,47.5,29.62,SSW,202,0.0,1.0,58,0.00,,,0.00,107,WeatherCatV1.21B27,2013-10-19 19:02:00,
2013-10-19 15:07:00,62.4,47.9,29.61,SSW,194,0.0,1.0,59,0.00,,,0.00,142,WeatherCatV1.21B27,2013-10-19 19:07:00,
2013-10-19 15:12:00,63.2,48.6,29.60,WSW,256,2.0,3.0,59,0.00,,,0.00,134,WeatherCatV1.21B27,2013-10-19 19:12:00,
2013-10-19 15:17:00,63.2,47.7,29.60,SSW,198,0.0,1.0,57,0.00,,,0.00,74,WeatherCatV1.21B27,2013-10-19 19:17:00,
2013-10-19 15:23:00,62.6,48.1,29.60,SSW,198,0.0,1.0,59,0.00,,,0.00,54,WeatherCatV1.21B27,2013-10-19 19:23:00,
2013-10-19 15:28:00,62.4,48.3,29.60,SSW,198,0.0,0.0,60,0.00,,,0.00,40,WeatherCatV1.21B27,2013-10-19 19:28:00,
2013-10-19 15:33:00,62.2,48.6,29.60,SSW,197,0.0,0.0,61,0.00,,,0.00,19,WeatherCatV1.21B27,2013-10-19 19:33:00,
2013-10-19 15:38:00,61.9,48.7,29.59,SSW,199,0.0,0.0,62,0.00,,,0.00,16,WeatherCatV1.21B27,2013-10-19 19:38:00,
2013-10-19 15:43:00,61.6,48.5,29.58,SSW,199,0.0,0.0,62,0.00,,,0.00,21,WeatherCatV1.21B27,2013-10-19 19:43:00,
2013-10-19 15:48:00,61.4,49.1,29.59,SSW,199,1.0,1.0,64,0.00,,,0.00,19,WeatherCatV1.21B27,2013-10-19 19:48:00,
2013-10-19 15:53:00,61.5,48.8,29.60,SSW,199,0.0,1.0,63,0.00,,,0.00,21,WeatherCatV1.21B27,2013-10-19 19:53:00,
2013-10-19 15:58:00,61.4,49.1,29.59,SSW,198,0.0,0.0,64,0.00,,,0.00,19,WeatherCatV1.21B27,2013-10-19 19:58:00,
2013-10-19 16:03:00,61.2,48.9,29.58,SSW,199,0.0,0.0,64,0.00,,,0.00,23,WeatherCatV1.21B27,2013-10-19 20:03:00,
2013-10-19 16:08:00,61.2,49.8,29.58,SSW,198,0.0,0.0,66,0.00,,,0.00,33,WeatherCatV1.21B27,2013-10-19 20:08:00,
2013-10-19 16:13:00,61.1,50.1,29.56,SSW,198,0.0,0.0,67,0.00,,,0.00,19,WeatherCatV1.21B27,2013-10-19 20:13:00,
2013-10-19 16:18:00,61.1,49.7,29.57,SSW,198,0.0,0.0,66,0.00,,,0.00,28,WeatherCatV1.21B27,2013-10-19 20:18:00,
2013-10-19 16:23:00,60.9,49.9,29.56,SSW,198,0.0,0.0,67,0.00,,,0.00,26,WeatherCatV1.21B27,2013-10-19 20:23:00,
2013-10-19 16:28:00,60.9,50.3,29.55,SSW,198,0.0,0.0,68,0.00,,,0.00,18,WeatherCatV1.21B27,2013-10-19 20:28:00,
2013-10-19 16:33:00,60.9,49.9,29.55,SSW,198,0.0,0.0,67,0.00,,,0.00,23,WeatherCatV1.21B27,2013-10-19 20:33:00,
2013-10-19 16:38:00,60.9,50.3,29.57,SSW,198,0.0,1.0,68,0.00,,,0.00,19,WeatherCatV1.21B27,2013-10-19 20:38:00,
2013-10-19 16:43:00,60.9,50.3,29.56,SSW,199,0.0,0.0,68,0.00,,,0.00,32,WeatherCatV1.21B27,2013-10-19 20:43:00,
2013-10-19 16:48:00,60.9,50.3,29.56,SSW,199,0.0,0.0,68,0.00,,,0.00,28,WeatherCatV1.21B27,2013-10-19 20:48:00,
2013-10-19 16:53:00,60.8,50.6,29.56,SSW,198,0.0,0.0,69,0.00,,,0.00,25,WeatherCatV1.21B27,2013-10-19 20:53:00,
2013-10-19 16:58:00,60.8,50.2,29.57,SSW,199,0.0,1.0,68,0.00,,,0.00,26,WeatherCatV1.21B27,2013-10-19 20:58:00,
2013-10-19 17:03:00,60.9,49.9,29.57,SSW,199,0.0,0.0,67,0.00,,,0.00,12,WeatherCatV1.21B27,2013-10-19 21:03:00,
2013-10-19 17:08:00,60.9,49.9,29.57,SSW,198,0.0,1.0,67,0.00,,,0.00,12,WeatherCatV1.21B27,2013-10-19 21:08:00,
2013-10-19 17:13:00,60.8,49.8,29.57,SSW,198,0.0,0.0,67,0.00,,,0.00,12,WeatherCatV1.21B27,2013-10-19 21:13:00,
2013-10-19 17:18:00,60.7,49.7,29.57,South,178,0.0,3.0,67,0.00,,,0.00,11,WeatherCatV1.21B27,2013-10-19 21:18:00,
2013-10-19 17:23:00,60.7,50.1,29.58,South,178,0.0,0.0,68,0.00,,,0.00,16,WeatherCatV1.21B27,2013-10-19 21:23:00,
2013-10-19 17:28:00,60.7,50.1,29.57,South,178,0.0,0.0,68,0.00,,,0.00,12,WeatherCatV1.21B27,2013-10-19 21:28:00,
2013-10-19 17:33:00,60.6,50.0,29.57,South,178,0.0,0.0,68,0.00,,,0.00,14,WeatherCatV1.21B27,2013-10-19 21:33:00,
2013-10-19 17:38:00,60.6,50.0,29.57,South,178,0.0,0.0,68,0.00,,,0.00,0,WeatherCatV1.21B27,2013-10-19 21:38:00,
2013-10-19 17:43:00,60.5,49.9,29.57,South,178,0.0,0.0,68,0.00,,,0.00,0,WeatherCatV1.21B27,2013-10-19 21:43:00,
2013-10-19 17:48:00,60.5,49.9,29.58,South,188,0.0,1.0,68,0.00,,,0.00,0,WeatherCatV1.21B27,2013-10-19 21:48:00,
2013-10-19 17:53:00,60.4,49.4,29.57,SSW,197,0.0,1.0,67,0.00,,,0.00,0,WeatherCatV1.21B27,2013-10-19 21:53:00,
2013-10-19 17:58:00,60.4,49.8,29.57,SSW,197,0.0,0.0,68,0.00,,,0.00,0,WeatherCatV1.21B27,2013-10-19 21:58:00,
2013-10-19 18:03:00,60.4,49.8,29.57,SSW,197,0.0,0.0,68,0.00,,,0.00,0,WeatherCatV1.21B27,2013-10-19 22:03:00,
2013-10-19 18:08:00,60.3,49.3,29.57,South,190,0.0,0.0,67,0.00,,,0.00,0,WeatherCatV1.21B27,2013-10-19 22:08:00,
2013-10-19 18:13:00,60.2,49.2,29.56,South,190,0.0,1.0,67,0.00,,,0.00,0,WeatherCatV1.21B27,2013-10-19 22:13:00,
2013-10-19 18:18:00,60.2,49.2,29.55,South,190,0.0,1.0,67,0.00,,,0.00,0,WeatherCatV1.21B27,2013-10-19 22:18:00,
2013-10-19 18:23:00,60.1,49.5,29.55,South,190,0.0,0.0,68,0.00,,,0.00,0,WeatherCatV1.21B27,2013-10-19 22:23:00,
2013-10-19 18:28:00,60.1,49.5,29.56,South,190,0.0,1.0,68,0.00,,,0.00,0,WeatherCatV1.21B27,2013-10-19 22:28:00,
2013-10-19 18:33:00,60.0,49.4,29.56,South,190,0.0,0.0,68,0.00,,,0.00,0,WeatherCatV1.21B27,2013-10-19 22:33:00,
2013-10-19 18:38:00,59.9,49.3,29.55,South,190,0.0,0.0,68,0.00,,,0.00,0,WeatherCatV1.21B27,2013-10-19 22:38:00,
2013-10-19 18:43:00,59.9,49.7,29.54,South,190,0.0,0.0,69,0.00,,,0.00,0,WeatherCatV1.21B27,2013-10-19 22:43:00,
2013-10-19 18:48:00,59.8,49.6,29.55,South,190,0.0,0.0,69,0.00,,,0.00,0,WeatherCatV1.21B27,2013-10-19 22:48:00,
2013-10-19 18:53:00,59.7,49.9,29.55,South,190,0.0,0.0,70,0.00,,,0.00,0,WeatherCatV1.21B27,2013-10-19 22:53:00,
2013-10-19 18:58:00,59.6,49.8,29.55,South,190,0.0,0.0,70,0.00,,,0.00,0,WeatherCatV1.21B27,2013-10-19 22:58:00,
2013-10-19 19:03:00,59.6,49.8,29.54,South,190,0.0,0.0,70,0.00,,,0.00,0,WeatherCatV1.21B27,2013-10-19 23:03:00,
2013-10-19 19:08:00,59.5,50.1,29.54,South,190,0.0,0.0,71,0.00,,,0.00,0,WeatherCatV1.21B27,2013-10-19 23:08:00,
2013-10-19 19:13:00,59.4,50.4,29.55,South,190,0.0,0.0,72,0.00,,,0.00,0,WeatherCatV1.21B27,2013-10-19 23:13:00,
2013-10-19 19:18:00,59.3,50.3,29.55,South,190,0.0,0.0,72,0.00,,,0.00,0,WeatherCatV1.21B27,2013-10-19 23:18:00,
2013-10-19 19:23:00,59.1,50.5,29.54,South,190,0.0,0.0,73,0.00,,,0.00,0,WeatherCatV1.21B27,2013-10-19 23:23:00,
2013-10-19 19:28:00,58.9,50.6,29.54,South,190,0.0,0.0,74,0.00,,,0.00,0,WeatherCatV1.21B27,2013-10-19 23:28:00,
2013-10-19 19:33:00,58.7,50.4,29.54,South,190,0.0,0.0,74,0.00,,,0.00,0,WeatherCatV1.21B27,2013-10-19 23:33:00,
2013-10-19 19:38:00,58.6,50.3,29.54,South,190,0.0,0.0,74,0.00,,,0.00,0,WeatherCatV1.21B27,2013-10-19 23:38:00,
2013-10-19 19:43:00,58.5,50.6,29.53,South,190,0.0,0.0,75,0.00,,,0.00,0,WeatherCatV1.21B27,2013-10-19 23:43:00,
2013-10-19 19:48:00,58.4,50.5,29.53,South,190,0.0,0.0,75,0.00,,,0.00,0,WeatherCatV1.21B27,2013-10-19 23:48:00,
2013-10-19 19:53:00,58.2,50.7,29.53,South,190,0.0,0.0,76,0.00,,,0.00,0,WeatherCatV1.21B27,2013-10-19 23:53:00,
2013-10-19 19:58:00,58.1,50.6,29.53,South,190,0.0,0.0,76,0.00,,,0.00,0,WeatherCatV1.21B27,2013-10-19 23:58:00,
2013-10-19 20:03:00,57.9,50.7,29.52,South,190,0.0,0.0,77,0.00,,,0.00,0,WeatherCatV1.21B27,2013-10-20 00:03:00,
2013-10-19 20:08:00,57.8,50.6,29.52,South,190,0.0,0.0,77,0.00,,,0.00,0,WeatherCatV1.21B27,2013-10-20 00:08:00,
2013-10-19 20:13:00,57.7,50.5,29.52,South,190,0.0,0.0,77,0.00,,,0.00,0,WeatherCatV1.21B27,2013-10-20 00:13:00,
2013-10-19 20:18:00,57.6,50.4,29.52,WSW,238,0.0,0.0,77,0.00,,,0.00,0,WeatherCatV1.21B27,2013-10-20 00:18:00,
2013-10-19 20:23:00,57.5,50.7,29.53,WSW,238,0.0,0.0,78,0.00,,,0.00,0,WeatherCatV1.21B27,2013-10-20 00:23:00,
2013-10-19 20:28:00,57.5,50.7,29.53,WSW,238,0.0,0.0,78,0.00,,,0.00,0,WeatherCatV1.21B27,2013-10-20 00:28:00,
2013-10-19 20:33:00,57.4,50.9,29.53,WSW,238,0.0,0.0,79,0.00,,,0.00,0,WeatherCatV1.21B27,2013-10-20 00:33:00,
2013-10-19 20:38:00,57.3,50.8,29.53,WSW,238,0.0,0.0,79,0.00,,,0.00,0,WeatherCatV1.21B27,2013-10-20 00:38:00,
2013-10-19 20:43:00,57.3,51.2,29.53,WSW,238,0.0,0.0,80,0.00,,,0.00,0,WeatherCatV1.21B27,2013-10-20 00:43:00,
2013-10-19 20:48:00,57.3,50.8,29.52,South,181,1.0,1.0,79,0.00,,,0.00,0,WeatherCatV1.21B27,2013-10-20 00:48:00,
2013-10-19 20:53:00,57.2,50.7,29.53,SSW,211,0.0,0.0,79,0.00,,,0.00,0,WeatherCatV1.21B27,2013-10-20 00:53:00,
2013-10-19 20:58:00,57.2,50.7,29.52,South,182,0.0,0.0,79,0.00,,,0.00,0,WeatherCatV1.21B27,2013-10-20 00:58:00,
2013-10-19 21:03:00,57.2,51.1,29.52,South,184,0.0,0.0,80,0.00,,,0.00,0,WeatherCatV1.21B27,2013-10-20 01:03:00,
2013-10-19 21:08:00,57.2,51.1,29.53,South,184,1.0,1.0,80,0.00,,,0.00,0,WeatherCatV1.21B27,2013-10-20 01:08:00,
2013-10-19 21:13:00,57.3,51.2,29.53,South,190,0.0,1.0,80,0.00,,,0.00,0,WeatherCatV1.21B27,2013-10-20 01:13:00,
2013-10-19 21:18:00,57.3,51.2,29.53,South,190,0.0,0.0,80,0.00,,,0.00,0,WeatherCatV1.21B27,2013-10-20 01:18:00,
2013-10-19 21:23:00,57.4,51.3,29.53,SSW,202,0.0,3.0,80,0.00,,,0.00,0,WeatherCatV1.21B27,2013-10-20 01:23:00,
2013-10-19 21:28:00,57.5,51.4,29.52,SSW,200,0.0,0.0,80,0.00,,,0.00,0,WeatherCatV1.21B27,2013-10-20 01:28:00,
2013-10-19 21:33:00,57.5,51.4,29.52,SSW,200,0.0,0.0,80,0.00,,,0.00,0,WeatherCatV1.21B27,2013-10-20 01:33:00,
2013-10-19 21:38:00,57.5,51.7,29.52,SSW,200,0.0,0.0,81,0.00,,,0.00,0,WeatherCatV1.21B27,2013-10-20 01:38:00,
2013-10-19 21:43:00,57.6,51.8,29.52,South,188,0.0,1.0,81,0.00,,,0.00,0,WeatherCatV1.21B27,2013-10-20 01:43:00,
2013-10-19 21:48:00,57.6,51.8,29.52,South,188,0.0,0.0,81,0.00,,,0.00,0,WeatherCatV1.21B27,2013-10-20 01:48:00,
2013-10-19 21:53:00,57.6,52.1,29.52,South,181,0.0,1.0,82,0.00,,,0.00,0,WeatherCatV1.21B27,2013-10-20 01:53:00,
2013-10-19 21:58:00,57.6,52.1,29.52,NW,311,0.0,1.0,82,0.00,,,0.00,0,WeatherCatV1.21B27,2013-10-20 01:58:00,
2013-10-19 22:03:00,57.7,52.6,29.52,SSW,205,0.0,0.0,83,0.00,,,0.00,0,WeatherCatV1.21B27,2013-10-20 02:03:00,
2013-10-19 22:08:00,57.7,52.6,29.52,SW,223,2.0,2.0,83,0.00,,,0.00,0,WeatherCatV1.21B27,2013-10-20 02:08:00,
2013-10-19 22:13:00,57.7,52.9,29.52,SSW,200,0.0,1.0,84,0.00,,,0.00,0,WeatherCatV1.21B27,2013-10-20 02:13:00,
2013-10-19 22:18:00,57.7,53.2,29.52,SSW,200,0.0,0.0,85,0.00,,,0.00,0,WeatherCatV1.21B27,2013-10-20 02:18:00,
2013-10-19 22:23:00,57.7,53.2,29.52,SSW,196,0.0,0.0,85,0.00,,,0.00,0,WeatherCatV1.21B27,2013-10-20 02:23:00,
2013-10-19 22:28:00,57.7,53.2,29.52,WNW,288,0.0,4.0,85,0.00,,,0.00,0,WeatherCatV1.21B27,2013-10-20 02:28:00,
2013-10-19 22:33:00,57.7,53.5,29.52,WSW,248,0.0,0.0,86,0.00,,,0.00,0,WeatherCatV1.21B27,2013-10-20 02:33:00,
2013-10-19 22:38:00,57.7,53.5,29.52,SSW,212,1.0,2.0,86,0.00,,,0.00,0,WeatherCatV1.21B27,2013-10-20 02:38:00,
2013-10-19 22:43:00,57.7,53.8,29.53,South,182,1.0,1.0,87,0.00,,,0.00,0,WeatherCatV1.21B27,2013-10-20 02:43:00,
2013-10-19 22:48:00,57.6,54.1,29.52,South,182,0.0,1.0,88,0.00,,,0.00,0,WeatherCatV1.21B27,2013-10-20 02:48:00,
2013-10-19 22:53:00,57.5,54.0,29.52,South,188,0.0,2.0,88,0.00,,,0.00,0,WeatherCatV1.21B27,2013-10-20 02:53:00,
2013-10-19 22:58:00,57.4,54.2,29.51,SSW,211,0.0,1.0,89,0.00,,,0.00,0,WeatherCatV1.21B27,2013-10-20 02:58:00,
2013-10-19 23:03:00,57.3,54.1,29.51,SSW,211,0.0,0.0,89,0.00,,,0.00,0,WeatherCatV1.21B27,2013-10-20 03:03:00,
2013-10-19 23:08:00,57.2,54.0,29.51,SW,234,0.0,0.0,89,0.00,,,0.00,0,WeatherCatV1.21B27,2013-10-20 03:08:00,
2013-10-19 23:13:00,57.1,54.2,29.51,SW,236,0.0,0.0,90,0.00,,,0.00,0,WeatherCatV1.21B27,2013-10-20 03:13:00,
2013-10-19 23:18:00,57.0,54.1,29.51,WSW,242,0.0,1.0,90,0.00,,,0.00,0,WeatherCatV1.21B27,2013-10-20 03:18:00,
2013-10-19 23:23:00,56.9,54.0,29.51,SW,219,0.0,0.0,90,0.00,,,0.00,0,WeatherCatV1.21B27,2013-10-20 03:23:00,
2013-10-19 23:28:00,56.9,54.0,29.51,SW,219,0.0,0.0,90,0.00,,,0.00,0,WeatherCatV1.21B27,2013-10-20 03:28:00,
2013-10-19 23:33:00,56.8,53.9,29.52,SW,219,0.0,1.0,90,0.00,,,0.00,0,WeatherCatV1.21B27,2013-10-20 03:33:00,
2013-10-19 23:38:00,56.6,54.0,29.52,SW,219,0.0,1.0,91,0.00,,,0.00,0,WeatherCatV1.21B27,2013-10-20 03:38:00,
2013-10-19 23:43:00,56.6,54.0,29.52,SSE,161,0.0,1.0,91,0.00,,,0.00,0,WeatherCatV1.21B27,2013-10-20 03:43:00,
2013-10-19 23:48:00,56.4,53.8,29.52,SSE,166,0.0,1.0,91,0.00,,,0.00,0,WeatherCatV1.21B27,2013-10-20 03:48:00,
2013-10-19 23:53:00,56.3,53.7,29.52,SSE,166,0.0,0.0,91,0.00,,,0.00,0,WeatherCatV1.21B27,2013-10-20 03:53:00,
2013-10-19 23:58:00,56.2,53.6,29.52,SSE,166,0.0,0.0,91,0.00,,,0.00,0,WeatherCatV1.21B27,2013-10-20 03:58:00,